Grandeur Of The Seas — C6SE3 — position and weather

sailwx.info

Track history (hours):
 
Tides and Currents Weather Stations Pressure Air Temp Water Temp Dewpoint Dewpoint Depression Visibility Wind Speed Wind Dir Waves Ship Positions

Grandeur Of The Seas

Operator: Royal Caribbean Cruises Ltd

Last reported at 2017-Mar-28 07:25 UTC. Time now 2017-Mar-28 19:35 UTC.
Position N 36°51' W 075°51'.

Type: Passenger vessel. MMSI: 311315000.

Date/timePositionNaut miles runAvg speedWind from/ knotsBaromVisibWave heightAir tempDewpointWater temp
2017-Mar-28 07:25N 36°51' W 075°51'8 9.4
2017-Mar-28 06:33N 36°57' W 075°59'7114.2
2017-Mar-28 01:32N 38°07' W 076°14'4715.8
2017-Mar-27 22:33N 38°54' W 076°24'1414.3
2017-Mar-27 21:33N 39°08' W 076°24'1110.9
2017-Mar-27 20:33N 39°15' W 076°34'1 1.3
2017-Mar-27 19:32N 39°16' W 076°36'0 0.0
2017-Mar-27 18:32N 39°16' W 076°36'0 0.0
2017-Mar-27 17:32N 39°16' W 076°36'0 0.0
2017-Mar-27 16:26N 39°16' W 076°36'0 0.0
2017-Mar-27 15:32N 39°16' W 076°36'0 0.0
2017-Mar-27 14:32N 39°16' W 076°36'0 0.0
2017-Mar-27 13:23N 39°16' W 076°36'0 0.0
2017-Mar-27 12:29N 39°16' W 076°36'0 0.0
2017-Mar-27 11:32N 39°16' W 076°36'1 1.4
2017-Mar-27 10:33N 39°15' W 076°34'9 9.3
2017-Mar-27 09:33N 39°09' W 076°25'1613.2
2017-Mar-27 08:19N 38°53' W 076°24'11415.9
2017-Mar-27 01:12N 37°01' W 076°03'812.6
2017-Mar-27 00:33N 36°55' W 075°55'  
2017-Mar-21 00:00N 31°54' W 079°42'354 8.3 020 / 331023.0 5.4 16.012.622.0
2017-Mar-19 05:33N 36°55' W 075°56'6616.0
2017-Mar-19 01:28N 37°59' W 076°12'5418.6
2017-Mar-18 22:34N 38°52' W 076°24'1716.3
2017-Mar-18 21:32N 39°09' W 076°25'1010.3
2017-Mar-18 20:31N 39°15' W 076°35'1 0.2
2017-Mar-18 16:31N 39°16' W 076°36'0 0.0
2017-Mar-18 15:11N 39°16' W 076°36'0 0.0
2017-Mar-18 12:07N 39°16' W 076°36'0 0.3
2017-Mar-18 10:32N 39°16' W 076°36'10 9.6
2017-Mar-18 09:33N 39°10' W 076°26'1713.8
2017-Mar-18 08:19N 38°53' W 076°24'  
Track history (hours):
 
Tides and Currents Weather Stations Pressure Air Temp Water Temp Dewpoint Dewpoint Depression Visibility Wind Speed Wind Dir Waves Ship Positions

Grandeur Of The Seas

Operator: Royal Caribbean Cruises Ltd

Last reported at 2017-Mar-28 07:25 UTC. Time now 2017-Mar-28 19:35 UTC.
Position N 36°51' W 075°51'.

Type: Passenger vessel. MMSI: 311315000.

Date/timePositionNaut miles runAvg speedWind from/ knotsBaromVisibWave heightAir tempDewpointWater temp
2017-Mar-28 07:25N 36°51' W 075°51'8 9.4
2017-Mar-28 06:33N 36°57' W 075°59'7114.2
2017-Mar-28 01:32N 38°07' W 076°14'4715.8
2017-Mar-27 22:33N 38°54' W 076°24'1414.3
2017-Mar-27 21:33N 39°08' W 076°24'1110.9
2017-Mar-27 20:33N 39°15' W 076°34'1 1.3
2017-Mar-27 19:32N 39°16' W 076°36'0 0.0
2017-Mar-27 18:32N 39°16' W 076°36'0 0.0
2017-Mar-27 17:32N 39°16' W 076°36'0 0.0
2017-Mar-27 16:26N 39°16' W 076°36'0 0.0
2017-Mar-27 15:32N 39°16' W 076°36'0 0.0
2017-Mar-27 14:32N 39°16' W 076°36'0 0.0
2017-Mar-27 13:23N 39°16' W 076°36'0 0.0
2017-Mar-27 12:29N 39°16' W 076°36'0 0.0
2017-Mar-27 11:32N 39°16' W 076°36'1 1.4
2017-Mar-27 10:33N 39°15' W 076°34'9 9.3
2017-Mar-27 09:33N 39°09' W 076°25'1613.2
2017-Mar-27 08:19N 38°53' W 076°24'11415.9
2017-Mar-27 01:12N 37°01' W 076°03'812.6
2017-Mar-27 00:33N 36°55' W 075°55'  
2017-Mar-21 00:00N 31°54' W 079°42'354 8.3 020 / 331023.0 5.4 16.012.622.0
2017-Mar-19 05:33N 36°55' W 075°56'6616.0
2017-Mar-19 01:28N 37°59' W 076°12'5418.6
2017-Mar-18 22:34N 38°52' W 076°24'1716.3
2017-Mar-18 21:32N 39°09' W 076°25'1010.3
2017-Mar-18 20:31N 39°15' W 076°35'1 0.2
2017-Mar-18 16:31N 39°16' W 076°36'0 0.0
2017-Mar-18 15:11N 39°16' W 076°36'0 0.0
2017-Mar-18 12:07N 39°16' W 076°36'0 0.3
2017-Mar-18 10:32N 39°16' W 076°36'10 9.6
2017-Mar-18 09:33N 39°10' W 076°26'1713.8
2017-Mar-18 08:19N 38°53' W 076°24'  

Dump ship's entire track history